createdAt,value
2023-03-21T00:00:12.290Z,483.00
2023-03-21T00:01:11.270Z,482.00
2023-03-21T00:02:11.364Z,484.00
2023-03-21T00:03:11.536Z,485.00
2023-03-21T00:17:11.319Z,486.00
2023-03-21T00:18:11.374Z,483.00
2023-03-21T00:19:11.361Z,481.00
2023-03-21T00:20:11.395Z,479.00
2023-03-21T00:21:39.277Z,479.00
2023-03-21T00:22:12.443Z,479.00
2023-03-21T00:23:11.401Z,480.00
2023-03-21T00:24:11.460Z,480.00
2023-03-21T00:25:11.399Z,479.00
2023-03-21T00:26:11.436Z,477.00
2023-03-21T00:27:34.550Z,478.00
2023-03-21T00:28:12.408Z,477.00
2023-03-21T00:29:11.387Z,473.00
2023-03-21T00:30:11.392Z,475.00
2023-03-21T00:31:11.409Z,473.00
2023-03-21T00:32:11.381Z,474.00
2023-03-21T00:33:21.982Z,475.00
2023-03-21T00:35:45.317Z,477.00
2023-03-21T00:36:12.888Z,477.00
2023-03-21T00:37:11.606Z,479.00
2023-03-21T00:38:11.303Z,478.00
2023-03-21T00:39:11.293Z,477.00
2023-03-21T00:40:23.049Z,479.00
2023-03-21T00:41:23.234Z,481.00
2023-03-21T00:42:12.276Z,481.00
2023-03-21T00:43:11.270Z,481.00
2023-03-21T00:44:11.277Z,479.00
2023-03-21T00:46:11.293Z,483.00
2023-03-21T01:36:13.379Z,477.00
2023-03-21T01:37:11.445Z,473.00
2023-03-21T01:38:11.444Z,474.00
2023-03-21T01:39:11.538Z,474.00
2023-03-21T01:40:11.491Z,473.00
2023-03-21T01:41:19.541Z,470.00
2023-03-21T01:42:12.508Z,470.00
2023-03-21T01:43:11.514Z,468.00
2023-03-21T01:44:11.525Z,469.00
2023-03-21T01:45:11.530Z,471.00
2023-03-21T01:46:11.839Z,468.00
2023-03-21T01:47:12.732Z,468.00
2023-03-21T01:48:11.525Z,470.00
2023-03-21T01:49:11.492Z,470.00
2023-03-21T01:50:11.463Z,468.00
2023-03-21T01:51:11.438Z,470.00
2023-03-21T01:52:21.066Z,469.00
2023-03-21T01:53:12.405Z,470.00
2023-03-21T01:54:11.446Z,471.00
2023-03-21T01:55:11.404Z,470.00
2023-03-21T01:56:11.417Z,468.00
2023-03-21T01:57:11.410Z,469.00
2023-03-21T01:58:11.390Z,470.00
2023-03-21T01:59:11.393Z,472.00
2023-03-21T02:00:11.383Z,472.00
2023-03-21T02:01:11.440Z,472.00
2023-03-21T02:02:11.353Z,473.00
2023-03-21T02:03:16.836Z,472.00
2023-03-21T02:04:12.597Z,472.00
2023-03-21T02:05:11.357Z,472.00
2023-03-21T02:06:11.430Z,471.00
2023-03-21T02:07:11.332Z,470.00
2023-03-21T02:08:11.305Z,472.00
2023-03-21T02:09:11.300Z,472.00
2023-03-21T02:10:11.318Z,470.00
2023-03-21T02:11:11.374Z,471.00
2023-03-21T02:12:11.312Z,470.00
2023-03-21T02:13:11.267Z,471.00
2023-03-21T02:14:13.274Z,472.00
2023-03-21T02:17:11.277Z,468.00
2023-03-21T02:26:11.259Z,467.00
2023-03-21T02:27:11.279Z,465.00
2023-03-21T02:28:11.308Z,464.00
2023-03-21T02:29:11.351Z,462.00
2023-03-21T02:30:17.399Z,460.00
2023-03-21T02:31:12.397Z,460.00
2023-03-21T02:32:20.265Z,462.00
2023-03-21T02:33:12.336Z,460.00
2023-03-21T02:34:11.334Z,458.00
2023-03-21T02:35:11.331Z,461.00
2023-03-21T02:36:14.485Z,463.00
2023-03-21T02:37:11.313Z,462.00
2023-03-21T02:38:11.298Z,460.00
2023-03-21T02:39:11.310Z,464.00
2023-03-21T02:40:11.352Z,465.00
2023-03-21T02:41:18.327Z,467.00
2023-03-21T02:42:12.312Z,465.00
2023-03-21T02:43:22.151Z,465.00
2023-03-21T02:44:12.260Z,465.00
2023-03-21T03:08:11.298Z,475.00
2023-03-21T03:09:11.316Z,476.00
2023-03-21T03:10:11.314Z,477.00
2023-03-21T03:11:11.356Z,476.00
2023-03-21T03:12:11.389Z,477.00
2023-03-21T03:13:11.395Z,476.00
2023-03-21T03:14:35.808Z,476.00
2023-03-21T03:15:12.406Z,476.00
2023-03-21T03:16:11.432Z,474.00
2023-03-21T03:17:11.403Z,473.00
2023-03-21T03:18:11.397Z,471.00
2023-03-21T03:19:11.397Z,470.00
2023-03-21T03:20:16.488Z,470.00
2023-03-21T03:21:12.352Z,470.00
2023-03-21T03:22:11.343Z,470.00
2023-03-21T03:23:11.352Z,469.00
2023-03-21T03:24:11.380Z,469.00
2023-03-21T03:25:21.225Z,469.00
2023-03-21T03:26:12.310Z,469.00
2023-03-21T03:27:11.330Z,469.00
2023-03-21T03:28:11.326Z,471.00
2023-03-21T03:29:11.321Z,469.00
2023-03-21T03:30:11.307Z,468.00
2023-03-21T03:31:11.809Z,469.00
2023-03-21T03:32:11.367Z,469.00
2023-03-21T03:33:11.273Z,469.00
2023-03-21T03:34:11.293Z,470.00
2023-03-21T03:35:11.276Z,473.00
2023-03-21T03:36:21.397Z,475.00
2023-03-21T03:37:12.264Z,476.00
2023-03-21T03:39:11.272Z,479.00
2023-03-21T04:00:11.265Z,466.00
2023-03-21T04:01:11.264Z,466.00
2023-03-21T04:02:11.326Z,469.00
2023-03-21T04:03:11.474Z,471.00
2023-03-21T04:04:13.553Z,470.00
2023-03-21T04:10:11.502Z,471.00
2023-03-21T04:21:11.741Z,474.00
2023-03-21T04:30:11.870Z,469.00
2023-03-21T04:31:24.568Z,468.00
2023-03-21T04:32:12.858Z,467.00
2023-03-21T04:33:11.828Z,464.00
2023-03-21T04:34:11.857Z,463.00
2023-03-21T04:35:11.845Z,464.00
2023-03-21T04:36:11.854Z,466.00
2023-03-21T04:54:11.757Z,463.00
2023-03-21T04:55:11.759Z,465.00
2023-03-21T05:09:11.931Z,471.00
2023-03-21T05:10:11.972Z,471.00
2023-03-21T05:11:11.941Z,469.00
2023-03-21T05:12:11.954Z,469.00
2023-03-21T05:14:11.994Z,468.00
2023-03-21T05:15:12.001Z,465.00
2023-03-21T05:16:12.011Z,464.00
2023-03-21T05:17:12.021Z,465.00
2023-03-21T05:18:11.982Z,463.00
2023-03-21T05:19:12.019Z,462.00
2023-03-21T05:20:12.018Z,465.00
2023-03-21T05:21:12.045Z,465.00
2023-03-21T05:22:12.062Z,464.00
2023-03-21T05:23:12.058Z,463.00
2023-03-21T05:24:12.059Z,462.00
2023-03-21T05:25:12.022Z,460.00
2023-03-21T05:26:12.020Z,460.00
2023-03-21T05:27:12.031Z,461.00
2023-03-21T05:28:12.058Z,463.00
2023-03-21T05:29:12.088Z,463.00
2023-03-21T05:30:12.068Z,464.00
2023-03-21T05:31:12.085Z,463.00
2023-03-21T05:32:12.069Z,467.00
2023-03-21T05:33:12.085Z,469.00
2023-03-21T05:34:12.091Z,469.00
2023-03-21T05:35:12.065Z,469.00
2023-03-21T05:36:12.115Z,469.00
2023-03-21T05:37:12.063Z,468.00
2023-03-21T05:38:12.082Z,466.00
2023-03-21T05:39:12.082Z,467.00
2023-03-21T05:40:12.129Z,467.00
2023-03-21T05:41:12.098Z,463.00
2023-03-21T05:42:12.061Z,461.00
2023-03-21T05:43:12.104Z,460.00
2023-03-21T05:44:12.111Z,459.00
2023-03-21T05:45:12.094Z,458.00
2023-03-21T05:46:12.169Z,458.00
2023-03-21T05:47:12.148Z,460.00
2023-03-21T05:48:12.169Z,461.00
2023-03-21T05:49:12.081Z,459.00
2023-03-21T05:50:12.096Z,460.00
2023-03-21T05:51:12.085Z,460.00
2023-03-21T05:52:12.105Z,460.00
2023-03-21T05:53:12.114Z,458.00
2023-03-21T05:54:12.080Z,458.00
2023-03-21T05:55:12.094Z,460.00
2023-03-21T05:56:12.089Z,461.00
2023-03-21T05:57:12.082Z,462.00
2023-03-21T05:58:12.067Z,463.00
2023-03-21T05:59:12.113Z,462.00
2023-03-21T06:00:12.120Z,462.00
2023-03-21T06:01:19.065Z,460.00
2023-03-21T06:02:12.041Z,460.00
2023-03-21T06:03:12.053Z,458.00
2023-03-21T06:04:12.201Z,459.00
2023-03-21T06:05:12.048Z,458.00
2023-03-21T06:06:12.085Z,459.00
2023-03-21T06:07:12.023Z,460.00
2023-03-21T06:08:12.047Z,461.00
2023-03-21T06:09:12.057Z,461.00
2023-03-21T06:10:12.026Z,458.00
2023-03-21T06:11:12.027Z,457.00
2023-03-21T06:12:11.996Z,457.00
2023-03-21T06:13:11.972Z,456.00
2023-03-21T06:14:11.995Z,458.00
2023-03-21T06:15:11.997Z,459.00
2023-03-21T06:16:12.040Z,460.00
2023-03-21T06:17:12.012Z,463.00
2023-03-21T06:18:11.957Z,465.00
2023-03-21T06:19:11.949Z,466.00
2023-03-21T06:20:11.935Z,465.00
2023-03-21T06:21:11.934Z,469.00
2023-03-21T06:22:11.903Z,468.00
2023-03-21T06:24:11.905Z,469.00
2023-03-21T06:25:11.897Z,469.00
2023-03-21T06:26:11.883Z,467.00
2023-03-21T06:27:11.908Z,466.00
2023-03-21T06:28:11.879Z,464.00
2023-03-21T06:29:11.895Z,465.00
2023-03-21T06:30:11.868Z,466.00
2023-03-21T06:31:11.856Z,467.00
2023-03-21T06:42:11.791Z,822.00
2023-03-21T06:44:12.436Z,782.00
2023-03-21T06:45:11.754Z,694.00
2023-03-21T06:46:18.840Z,719.00
2023-03-21T06:52:11.802Z,1092.00
2023-03-21T07:00:11.765Z,1260.00
2023-03-21T07:01:11.662Z,1268.00
2023-03-21T07:06:11.666Z,1358.00
2023-03-21T07:07:11.629Z,1372.00
2023-03-21T07:08:11.589Z,1396.00
2023-03-21T07:09:11.604Z,1406.00
2023-03-21T07:14:11.748Z,1525.00
2023-03-21T07:18:11.845Z,1629.00
2023-03-21T07:19:11.775Z,1639.00
2023-03-21T07:20:11.794Z,1637.00
2023-03-21T07:23:11.809Z,1672.00
2023-03-21T07:25:11.880Z,1819.00
2023-03-21T07:26:11.940Z,1830.00
2023-03-21T07:27:11.821Z,1787.00
2023-03-21T07:28:11.849Z,1804.00
2023-03-21T07:29:11.859Z,1910.00
2023-03-21T07:30:11.847Z,1876.00
2023-03-21T07:31:11.889Z,1862.00
2023-03-21T07:32:11.867Z,1868.00
2023-03-21T07:39:11.818Z,1861.00
2023-03-21T07:40:11.794Z,1890.00
2023-03-21T07:42:11.921Z,1450.00
2023-03-21T07:45:11.800Z,1028.00
2023-03-21T07:46:11.880Z,1006.00
2023-03-21T07:47:11.881Z,992.00
2023-03-21T07:48:12.159Z,982.00
2023-03-21T07:50:12.094Z,1012.00
2023-03-21T07:51:12.343Z,949.00
2023-03-21T07:52:12.208Z,932.00
2023-03-21T07:53:12.272Z,996.00
2023-03-21T07:54:12.323Z,1072.00
2023-03-21T07:55:12.381Z,932.00
2023-03-21T07:56:12.493Z,1039.00
2023-03-21T07:59:12.635Z,879.00
2023-03-21T08:06:13.077Z,873.00
2023-03-21T08:07:13.076Z,1065.00
2023-03-21T08:12:13.351Z,940.00
2023-03-21T08:13:13.440Z,986.00
2023-03-21T08:14:13.438Z,905.00
2023-03-21T08:16:13.552Z,941.00
2023-03-21T08:17:13.689Z,966.00
2023-03-21T08:23:14.019Z,909.00
2023-03-21T08:24:13.938Z,882.00
2023-03-21T08:25:14.027Z,952.00
2023-03-21T08:26:14.043Z,929.00
2023-03-21T08:28:14.541Z,1040.00
2023-03-21T08:29:14.178Z,949.00
2023-03-21T08:30:14.226Z,926.00
2023-03-21T08:31:14.315Z,973.00
2023-03-21T08:32:14.315Z,991.00
2023-03-21T08:33:14.356Z,984.00
2023-03-21T08:36:14.618Z,1088.00
2023-03-21T09:03:16.081Z,932.00
2023-03-21T09:08:15.998Z,813.00
2023-03-21T09:09:16.045Z,818.00
2023-03-21T09:10:21.012Z,880.00
2023-03-21T09:12:16.065Z,804.00
2023-03-21T09:13:16.035Z,785.00
2023-03-21T09:14:16.113Z,753.00
2023-03-21T09:15:16.115Z,755.00
2023-03-21T09:16:17.093Z,715.00
2023-03-21T09:17:16.068Z,957.00
2023-03-21T09:18:16.130Z,865.00
2023-03-21T09:19:16.011Z,825.00
2023-03-21T09:20:16.017Z,812.00
2023-03-21T09:21:16.036Z,878.00
2023-03-21T09:22:16.044Z,889.00
2023-03-21T09:23:16.131Z,861.00
2023-03-21T09:24:16.112Z,947.00
2023-03-21T09:25:16.177Z,818.00
2023-03-21T09:26:16.190Z,1298.00
2023-03-21T09:27:16.208Z,1170.00
2023-03-21T09:28:16.246Z,1265.00
2023-03-21T09:29:16.286Z,710.00
2023-03-21T09:30:16.356Z,696.00
2023-03-21T09:31:16.475Z,705.00
2023-03-21T09:32:16.400Z,699.00
2023-03-21T09:33:16.486Z,693.00
2023-03-21T09:34:16.531Z,676.00
2023-03-21T09:35:16.537Z,665.00
2023-03-21T09:36:16.679Z,662.00
2023-03-21T09:37:16.611Z,652.00
2023-03-21T09:38:16.659Z,641.00
2023-03-21T09:39:16.706Z,610.00
2023-03-21T09:40:16.748Z,592.00
2023-03-21T09:41:16.814Z,582.00
2023-03-21T09:42:16.850Z,570.00
2023-03-21T09:43:16.907Z,567.00
2023-03-21T09:44:16.972Z,566.00
2023-03-21T09:45:17.079Z,567.00
2023-03-21T09:46:17.100Z,566.00
2023-03-21T09:47:17.120Z,563.00
2023-03-21T09:50:17.330Z,557.00
2023-03-21T09:51:17.404Z,595.00
2023-03-21T09:52:17.445Z,689.00
2023-03-21T09:53:17.453Z,776.00
2023-03-21T09:54:17.554Z,752.00
2023-03-21T09:55:17.376Z,678.00
2023-03-21T09:56:17.418Z,653.00
2023-03-21T09:57:17.403Z,702.00
2023-03-21T09:58:17.466Z,695.00
2023-03-21T09:59:17.494Z,704.00
2023-03-21T10:00:17.523Z,709.00
2023-03-21T10:01:17.581Z,710.00
2023-03-21T10:02:17.600Z,730.00
2023-03-21T10:03:17.614Z,694.00
2023-03-21T10:04:18.079Z,740.00
2023-03-21T10:05:17.580Z,796.00
2023-03-21T10:06:17.627Z,747.00
2023-03-21T10:07:17.632Z,816.00
2023-03-21T10:08:18.299Z,878.00
2023-03-21T10:10:17.804Z,740.00
2023-03-21T10:11:17.843Z,741.00
2023-03-21T10:12:17.921Z,692.00
2023-03-21T10:13:17.971Z,700.00
2023-03-21T10:14:17.985Z,774.00
2023-03-21T10:15:17.946Z,867.00
2023-03-21T10:16:18.049Z,664.00
2023-03-21T10:17:18.004Z,727.00
2023-03-21T10:18:18.029Z,717.00
2023-03-21T10:19:18.567Z,635.00
2023-03-21T10:20:18.087Z,663.00
2023-03-21T10:21:32.001Z,644.00
2023-03-21T10:22:19.097Z,643.00
2023-03-21T10:23:18.157Z,645.00
2023-03-21T10:24:18.106Z,636.00
2023-03-21T10:25:18.589Z,641.00
2023-03-21T10:26:20.328Z,646.00
2023-03-21T10:27:18.099Z,691.00
2023-03-21T10:28:18.096Z,892.00
2023-03-21T10:29:18.103Z,621.00
2023-03-21T10:31:18.075Z,696.00
2023-03-21T10:32:18.101Z,704.00
2023-03-21T10:33:18.105Z,731.00
2023-03-21T10:34:18.035Z,828.00
2023-03-21T10:35:18.061Z,810.00
2023-03-21T10:36:18.054Z,772.00
2023-03-21T10:37:18.047Z,588.00
2023-03-21T10:38:17.987Z,600.00
2023-03-21T10:39:18.008Z,657.00
2023-03-21T10:40:18.030Z,673.00
2023-03-21T10:41:17.993Z,687.00
2023-03-21T10:42:17.985Z,774.00
2023-03-21T10:43:17.959Z,754.00
2023-03-21T10:44:18.013Z,731.00
2023-03-21T10:45:18.101Z,687.00
2023-03-21T10:46:18.162Z,723.00
2023-03-21T10:47:18.333Z,775.00
2023-03-21T10:48:18.161Z,857.00
2023-03-21T10:49:17.920Z,800.00
2023-03-21T10:50:17.999Z,783.00
2023-03-21T10:51:17.906Z,726.00
2023-03-21T10:52:17.887Z,817.00
2023-03-21T10:53:17.893Z,719.00
2023-03-21T10:54:17.957Z,709.00
2023-03-21T10:55:17.983Z,825.00
2023-03-21T10:56:17.904Z,774.00
2023-03-21T10:57:17.878Z,705.00
2023-03-21T10:58:17.886Z,673.00
2023-03-21T10:59:19.497Z,672.00
2023-03-21T11:00:17.994Z,655.00
2023-03-21T11:01:18.068Z,785.00
2023-03-21T11:02:17.983Z,990.00
2023-03-21T11:03:17.939Z,761.00
2023-03-21T11:04:17.954Z,654.00
2023-03-21T11:05:20.466Z,706.00
2023-03-21T11:06:18.005Z,710.00
2023-03-21T11:07:17.987Z,704.00
2023-03-21T11:08:17.973Z,671.00
2023-03-21T11:09:18.013Z,669.00
2023-03-21T11:10:28.174Z,679.00
2023-03-21T11:11:20.335Z,681.00
2023-03-21T11:12:17.920Z,675.00
2023-03-21T11:13:17.931Z,640.00
2023-03-21T11:14:17.998Z,642.00
2023-03-21T11:15:17.956Z,706.00
2023-03-21T11:16:18.159Z,680.00
2023-03-21T11:17:18.037Z,672.00
2023-03-21T11:18:18.034Z,666.00
2023-03-21T11:19:18.045Z,674.00
2023-03-21T11:20:18.181Z,668.00
2023-03-21T11:21:18.089Z,661.00
2023-03-21T11:22:18.052Z,657.00
2023-03-21T11:23:20.496Z,655.00
2023-03-21T11:24:18.033Z,658.00
2023-03-21T11:25:18.011Z,664.00
2023-03-21T11:26:18.139Z,660.00
2023-03-21T11:27:17.983Z,658.00
2023-03-21T11:28:17.992Z,635.00
2023-03-21T11:29:19.033Z,734.00
2023-03-21T11:30:18.092Z,680.00
2023-03-21T11:31:18.030Z,770.00
2023-03-21T11:32:17.943Z,965.00
2023-03-21T11:33:17.952Z,979.00
2023-03-21T11:34:17.973Z,741.00
2023-03-21T11:35:19.760Z,700.00
2023-03-21T11:36:18.100Z,715.00
2023-03-21T11:37:17.898Z,702.00
2023-03-21T11:38:18.615Z,817.00
2023-03-21T11:39:17.899Z,785.00
2023-03-21T11:40:17.916Z,776.00
2023-03-21T11:41:19.037Z,912.00
2023-03-21T11:42:17.894Z,1220.00
2023-03-21T11:43:17.899Z,906.00
2023-03-21T11:44:17.898Z,791.00
2023-03-21T11:45:17.952Z,968.00
2023-03-21T11:46:17.929Z,856.00
2023-03-21T11:47:17.862Z,901.00
2023-03-21T11:48:17.979Z,1011.00
2023-03-21T11:49:17.837Z,791.00
2023-03-21T11:50:17.794Z,846.00
2023-03-21T11:51:18.107Z,771.00
2023-03-21T11:52:17.798Z,772.00
2023-03-21T11:53:17.839Z,827.00
2023-03-21T11:54:17.889Z,1075.00
2023-03-21T11:55:17.977Z,788.00
2023-03-21T11:56:18.002Z,862.00
2023-03-21T11:57:18.088Z,836.00
2023-03-21T11:58:18.119Z,879.00
2023-03-21T11:59:18.238Z,892.00
2023-03-21T12:00:18.267Z,875.00
2023-03-21T12:01:18.366Z,813.00
2023-03-21T12:02:18.442Z,872.00
2023-03-21T12:03:18.484Z,1093.00
2023-03-21T12:04:18.629Z,946.00
2023-03-21T12:05:18.592Z,848.00
2023-03-21T12:06:18.661Z,877.00
2023-03-21T12:07:18.715Z,927.00
2023-03-21T12:08:18.736Z,909.00
2023-03-21T12:09:18.843Z,859.00
2023-03-21T12:10:18.892Z,816.00
2023-03-21T12:11:18.934Z,863.00
2023-03-21T12:12:22.238Z,929.00
2023-03-21T12:13:20.002Z,810.00
2023-03-21T12:14:18.978Z,866.00
2023-03-21T12:15:18.985Z,823.00
2023-03-21T12:16:19.109Z,872.00
2023-03-21T12:17:18.987Z,880.00
2023-03-21T12:18:18.944Z,944.00
2023-03-21T12:19:18.957Z,1134.00
2023-03-21T12:20:18.975Z,972.00
2023-03-21T12:21:18.926Z,958.00
2023-03-21T12:22:19.123Z,969.00
2023-03-21T12:23:19.161Z,1056.00
2023-03-21T12:24:19.095Z,1061.00
2023-03-21T12:25:19.105Z,1071.00
2023-03-21T12:26:19.154Z,1081.00
2023-03-21T12:27:19.623Z,1081.00
2023-03-21T12:28:31.678Z,1229.00
2023-03-21T12:29:20.207Z,1060.00
2023-03-21T12:30:19.234Z,1123.00
2023-03-21T12:31:19.279Z,1127.00
2023-03-21T12:32:19.690Z,1094.00
2023-03-21T12:33:19.198Z,1132.00
2023-03-21T12:34:19.172Z,1131.00
2023-03-21T12:35:19.205Z,1125.00
2023-03-21T12:36:19.292Z,1104.00
2023-03-21T12:37:19.586Z,1100.00
2023-03-21T12:38:19.148Z,1094.00
2023-03-21T12:39:19.142Z,1086.00
2023-03-21T12:40:19.125Z,1088.00
2023-03-21T12:41:19.295Z,1089.00
2023-03-21T12:42:19.216Z,1089.00
2023-03-21T12:43:19.276Z,1090.00
2023-03-21T12:44:19.332Z,1094.00
2023-03-21T12:45:19.385Z,1092.00
2023-03-21T12:46:19.569Z,1095.00
2023-03-21T12:47:19.476Z,1096.00
2023-03-21T12:48:19.557Z,1092.00
2023-03-21T12:49:19.542Z,1087.00
2023-03-21T12:50:19.618Z,1081.00
2023-03-21T12:51:19.643Z,1075.00
2023-03-21T12:52:19.783Z,1075.00
2023-03-21T12:53:19.742Z,1074.00
2023-03-21T12:54:19.803Z,1071.00
2023-03-21T12:55:19.846Z,1072.00
2023-03-21T12:56:19.922Z,1069.00
2023-03-21T12:57:20.066Z,1063.00
2023-03-21T12:58:20.038Z,1062.00
2023-03-21T12:59:20.103Z,1063.00
2023-03-21T13:00:20.153Z,1058.00
2023-03-21T13:01:20.257Z,1056.00
2023-03-21T13:02:20.263Z,1054.00
2023-03-21T13:03:25.078Z,1050.00
2023-03-21T13:04:21.375Z,1048.00
2023-03-21T13:05:20.299Z,1043.00
2023-03-21T13:06:20.303Z,1044.00
2023-03-21T13:07:20.307Z,1045.00
2023-03-21T13:08:20.313Z,1044.00
2023-03-21T13:09:28.417Z,1042.00
2023-03-21T13:10:21.310Z,1036.00
2023-03-21T13:11:20.263Z,1032.00
2023-03-21T13:12:20.284Z,1029.00
2023-03-21T13:13:20.335Z,1031.00
2023-03-21T13:14:20.248Z,1030.00
2023-03-21T13:15:24.027Z,1031.00
2023-03-21T13:16:20.246Z,1027.00
2023-03-21T13:17:20.221Z,1025.00
2023-03-21T13:18:20.191Z,1023.00
2023-03-21T13:19:20.178Z,1022.00
2023-03-21T13:20:20.202Z,1019.00
2023-03-21T13:21:20.206Z,1016.00
2023-03-21T13:22:20.173Z,1013.00
2023-03-21T13:23:20.207Z,1010.00
2023-03-21T13:24:20.162Z,1005.00
2023-03-21T13:25:20.238Z,1000.00
2023-03-21T13:26:20.128Z,995.00
2023-03-21T13:27:20.152Z,993.00
2023-03-21T13:28:20.160Z,991.00
2023-03-21T13:29:20.213Z,988.00
2023-03-21T13:30:20.175Z,986.00
2023-03-21T13:31:20.225Z,980.00
2023-03-21T13:32:20.101Z,974.00
2023-03-21T13:33:20.105Z,973.00
2023-03-21T13:34:20.136Z,971.00
2023-03-21T13:35:20.089Z,969.00
2023-03-21T13:36:20.259Z,964.00
2023-03-21T13:37:20.255Z,961.00
2023-03-21T13:38:20.311Z,956.00
2023-03-21T13:39:20.340Z,953.00
2023-03-21T13:40:20.439Z,950.00
2023-03-21T13:41:20.481Z,949.00
2023-03-21T13:42:20.572Z,945.00
2023-03-21T13:43:27.001Z,947.00
2023-03-21T13:44:21.619Z,942.00
2023-03-21T13:45:20.674Z,938.00
2023-03-21T13:46:20.639Z,936.00
2023-03-21T13:47:20.585Z,935.00
2023-03-21T13:48:20.630Z,936.00
2023-03-21T13:49:20.557Z,933.00
2023-03-21T13:50:20.565Z,931.00
2023-03-21T13:51:20.541Z,929.00
2023-03-21T13:52:20.573Z,925.00
2023-03-21T13:53:20.630Z,920.00
2023-03-21T13:54:20.676Z,915.00
2023-03-21T13:55:20.783Z,913.00
2023-03-21T13:56:20.828Z,907.00
2023-03-21T13:57:20.858Z,885.00
2023-03-21T13:58:20.923Z,865.00
2023-03-21T13:59:20.971Z,862.00
2023-03-21T14:00:21.052Z,859.00
2023-03-21T14:01:21.259Z,866.00
2023-03-21T14:02:21.145Z,877.00
2023-03-21T14:03:21.294Z,884.00
2023-03-21T14:04:24.130Z,899.00
2023-03-21T14:05:22.253Z,904.00
2023-03-21T14:06:21.192Z,904.00
2023-03-21T14:07:21.207Z,906.00
2023-03-21T14:08:36.473Z,903.00
2023-03-21T14:09:22.167Z,904.00
2023-03-21T14:10:21.200Z,898.00
2023-03-21T14:11:21.160Z,894.00
2023-03-21T14:12:21.177Z,893.00
2023-03-21T14:13:21.182Z,891.00
2023-03-21T14:14:21.139Z,887.00
2023-03-21T14:15:21.148Z,886.00
2023-03-21T14:16:21.133Z,882.00
2023-03-21T14:17:21.229Z,876.00
2023-03-21T14:18:28.176Z,870.00
2023-03-21T14:19:22.235Z,864.00
2023-03-21T14:20:21.203Z,862.00
2023-03-21T14:21:24.245Z,859.00
2023-03-21T14:22:21.188Z,855.00
2023-03-21T14:23:21.188Z,852.00
2023-03-21T14:24:21.181Z,851.00
2023-03-21T14:25:21.167Z,848.00
2023-03-21T14:26:21.127Z,846.00
2023-03-21T14:27:21.154Z,840.00
2023-03-21T14:28:21.142Z,838.00
2023-03-21T14:29:26.061Z,837.00
2023-03-21T14:30:22.144Z,833.00
2023-03-21T14:31:21.204Z,833.00
2023-03-21T14:32:21.092Z,831.00
2023-03-21T14:33:21.191Z,828.00
2023-03-21T14:34:21.125Z,826.00
2023-03-21T14:35:21.122Z,826.00
2023-03-21T14:36:21.086Z,825.00
2023-03-21T14:37:21.062Z,824.00
2023-03-21T14:38:21.091Z,821.00
2023-03-21T14:39:21.114Z,822.00
2023-03-21T14:40:21.175Z,819.00
2023-03-21T14:41:21.195Z,819.00
2023-03-21T14:42:21.225Z,817.00
2023-03-21T14:43:21.278Z,817.00
2023-03-21T14:44:21.314Z,815.00
2023-03-21T14:45:21.372Z,813.00
2023-03-21T14:46:21.402Z,808.00
2023-03-21T14:47:21.434Z,807.00
2023-03-21T14:48:21.515Z,807.00
2023-03-21T14:49:21.617Z,806.00
2023-03-21T14:50:21.559Z,807.00
2023-03-21T14:51:21.643Z,806.00
2023-03-21T14:52:21.705Z,803.00
2023-03-21T14:53:21.709Z,802.00
2023-03-21T14:54:21.765Z,803.00
2023-03-21T14:55:21.822Z,803.00
2023-03-21T14:56:21.813Z,797.00
2023-03-21T14:57:21.900Z,794.00
2023-03-21T14:58:21.919Z,797.00
2023-03-21T14:59:21.962Z,794.00
2023-03-21T15:00:22.010Z,792.00
2023-03-21T15:01:22.093Z,789.00
2023-03-21T15:02:22.103Z,789.00
2023-03-21T15:03:22.137Z,789.00
2023-03-21T15:04:22.147Z,785.00
2023-03-21T15:05:22.358Z,786.00
2023-03-21T15:06:22.221Z,785.00
2023-03-21T15:07:22.275Z,781.00
2023-03-21T15:08:22.273Z,779.00
2023-03-21T15:09:22.322Z,775.00
2023-03-21T15:10:22.314Z,777.00
2023-03-21T15:11:22.362Z,776.00
2023-03-21T15:12:22.389Z,775.00
2023-03-21T15:13:22.445Z,774.00
2023-03-21T15:14:22.477Z,773.00
2023-03-21T15:15:23.832Z,773.00
2023-03-21T15:16:22.658Z,771.00
2023-03-21T15:17:22.677Z,775.00
2023-03-21T15:18:22.740Z,774.00
2023-03-21T15:19:22.764Z,774.00
2023-03-21T15:20:22.809Z,772.00
2023-03-21T15:21:22.947Z,769.00
2023-03-21T15:22:22.921Z,765.00
2023-03-21T15:23:22.995Z,764.00
2023-03-21T15:24:23.000Z,765.00
2023-03-21T15:25:23.043Z,763.00
2023-03-21T15:26:23.052Z,762.00
2023-03-21T15:27:23.068Z,760.00
2023-03-21T15:28:23.141Z,760.00
2023-03-21T15:29:23.161Z,761.00
2023-03-21T15:30:23.183Z,764.00
2023-03-21T15:31:23.341Z,762.00
2023-03-21T15:32:23.281Z,760.00
2023-03-21T15:33:23.300Z,761.00
2023-03-21T15:34:23.356Z,761.00
2023-03-21T15:35:23.373Z,760.00
2023-03-21T15:36:23.504Z,760.00
2023-03-21T15:37:23.570Z,761.00
2023-03-21T15:38:23.503Z,758.00
2023-03-21T15:39:23.543Z,758.00
2023-03-21T15:40:24.166Z,756.00
2023-03-21T15:41:23.628Z,752.00
2023-03-21T15:42:23.667Z,748.00
2023-03-21T15:43:23.688Z,746.00
2023-03-21T15:44:23.719Z,745.00
2023-03-21T15:45:23.755Z,742.00
2023-03-21T15:46:24.701Z,740.00
2023-03-21T15:47:23.764Z,741.00
2023-03-21T15:48:23.901Z,742.00
2023-03-21T15:49:23.800Z,743.00
2023-03-21T15:50:23.838Z,741.00
2023-03-21T15:51:23.848Z,738.00
2023-03-21T15:52:23.939Z,738.00
2023-03-21T15:53:24.040Z,737.00
2023-03-21T15:54:23.972Z,735.00
2023-03-21T15:55:24.027Z,734.00
2023-03-21T16:51:24.877Z,687.00
2023-03-21T16:52:26.384Z,683.00
2023-03-21T16:53:24.876Z,680.00
2023-03-21T16:54:24.890Z,682.00
2023-03-21T16:55:24.892Z,678.00
2023-03-21T16:56:24.892Z,679.00
2023-03-21T16:57:24.926Z,676.00
2023-03-21T16:58:24.918Z,672.00
2023-03-21T16:59:24.950Z,669.00
2023-03-21T17:00:24.933Z,671.00
2023-03-21T17:01:24.972Z,670.00
2023-03-21T17:02:24.928Z,667.00
2023-03-21T17:03:25.053Z,669.00
2023-03-21T17:04:24.940Z,669.00
2023-03-21T17:05:24.921Z,670.00
2023-03-21T17:06:24.945Z,669.00
2023-03-21T17:07:24.955Z,667.00
2023-03-21T17:08:24.956Z,665.00
2023-03-21T17:09:24.954Z,665.00
2023-03-21T17:10:24.935Z,663.00
2023-03-21T17:11:24.948Z,662.00
2023-03-21T17:12:24.911Z,663.00
2023-03-21T17:13:24.937Z,661.00
2023-03-21T17:14:24.903Z,659.00
2023-03-21T17:15:24.924Z,658.00
2023-03-21T17:16:26.886Z,657.00
2023-03-21T17:17:24.886Z,656.00
2023-03-21T17:18:24.889Z,656.00
2023-03-21T17:19:25.329Z,655.00
2023-03-21T17:20:24.898Z,654.00
2023-03-21T17:21:24.912Z,652.00
2023-03-21T17:22:24.912Z,651.00
2023-03-21T17:23:24.951Z,648.00
2023-03-21T17:24:24.905Z,645.00
2023-03-21T17:25:24.915Z,644.00
2023-03-21T17:26:24.900Z,644.00
2023-03-21T17:27:24.936Z,644.00
2023-03-21T17:28:24.909Z,645.00
2023-03-21T17:29:24.893Z,645.00
2023-03-21T17:30:24.903Z,644.00
2023-03-21T17:31:24.950Z,644.00
2023-03-21T17:32:24.873Z,642.00
2023-03-21T17:33:24.892Z,645.00
2023-03-21T17:34:24.867Z,641.00
2023-03-21T17:35:24.904Z,640.00
2023-03-21T17:36:24.907Z,641.00
2023-03-21T17:37:24.862Z,643.00
2023-03-21T17:38:24.862Z,641.00
2023-03-21T17:39:24.820Z,641.00
2023-03-21T17:40:24.850Z,641.00
2023-03-21T17:41:24.859Z,641.00
2023-03-21T17:42:24.861Z,641.00
2023-03-21T17:43:24.831Z,642.00
2023-03-21T17:44:24.830Z,639.00
2023-03-21T17:45:24.848Z,639.00
2023-03-21T17:46:24.851Z,636.00
2023-03-21T17:47:24.821Z,633.00
2023-03-21T17:48:24.875Z,632.00
2023-03-21T17:49:24.809Z,633.00
2023-03-21T17:50:24.809Z,633.00
2023-03-21T17:51:24.806Z,631.00
2023-03-21T17:52:25.042Z,629.00
2023-03-21T17:53:24.811Z,629.00
2023-03-21T17:54:24.793Z,629.00
2023-03-21T17:55:24.814Z,630.00
2023-03-21T17:56:24.815Z,629.00